sensor_id;sensor_type;location;lat;lon;timestamp;P1;durP1;ratioP1;P2;durP2;ratioP2
4642;SDS011;2334;48.710;9.622;2022-07-29T00:02:10;4.93;;;4.50;;
4642;SDS011;2334;48.710;9.622;2022-07-29T00:05:14;9.53;;;6.60;;
4642;SDS011;2334;48.710;9.622;2022-07-29T00:07:55;9.17;;;6.73;;
4642;SDS011;2334;48.710;9.622;2022-07-29T00:10:34;8.60;;;4.93;;
4642;SDS011;2334;48.710;9.622;2022-07-29T00:13:14;8.40;;;5.90;;
4642;SDS011;2334;48.710;9.622;2022-07-29T00:15:52;7.07;;;6.40;;
4642;SDS011;2334;48.710;9.622;2022-07-29T00:18:40;8.00;;;6.10;;
4642;SDS011;2334;48.710;9.622;2022-07-29T00:21:14;7.53;;;5.20;;
4642;SDS011;2334;48.710;9.622;2022-07-29T00:23:53;8.17;;;5.50;;
4642;SDS011;2334;48.710;9.622;2022-07-29T00:26:55;9.50;;;5.87;;
4642;SDS011;2334;48.710;9.622;2022-07-29T00:29:42;9.57;;;5.57;;
4642;SDS011;2334;48.710;9.622;2022-07-29T00:32:12;7.23;;;5.73;;
4642;SDS011;2334;48.710;9.622;2022-07-29T00:34:41;9.40;;;5.17;;
4642;SDS011;2334;48.710;9.622;2022-07-29T00:37:35;8.60;;;5.90;;
4642;SDS011;2334;48.710;9.622;2022-07-29T00:40:02;7.30;;;5.83;;
4642;SDS011;2334;48.710;9.622;2022-07-29T00:42:30;8.70;;;6.43;;
4642;SDS011;2334;48.710;9.622;2022-07-29T00:44:59;10.10;;;6.47;;
4642;SDS011;2334;48.710;9.622;2022-07-29T00:47:32;8.87;;;6.87;;
4642;SDS011;2334;48.710;9.622;2022-07-29T00:50:01;9.43;;;6.30;;
4642;SDS011;2334;48.710;9.622;2022-07-29T00:52:33;6.80;;;5.60;;
4642;SDS011;2334;48.710;9.622;2022-07-29T00:55:04;7.63;;;5.70;;
4642;SDS011;2334;48.710;9.622;2022-07-29T01:00:38;9.93;;;6.13;;
4642;SDS011;2334;48.710;9.622;2022-07-29T01:03:12;7.00;;;5.90;;
4642;SDS011;2334;48.710;9.622;2022-07-29T01:05:41;6.23;;;5.47;;
4642;SDS011;2334;48.710;9.622;2022-07-29T01:08:14;10.30;;;6.07;;
4642;SDS011;2334;48.710;9.622;2022-07-29T01:10:42;5.10;;;4.60;;
4642;SDS011;2334;48.710;9.622;2022-07-29T01:13:10;6.20;;;5.60;;
4642;SDS011;2334;48.710;9.622;2022-07-29T01:15:43;5.50;;;4.10;;
4642;SDS011;2334;48.710;9.622;2022-07-29T01:18:18;7.97;;;6.10;;
4642;SDS011;2334;48.710;9.622;2022-07-29T01:20:58;13.30;;;6.10;;
4642;SDS011;2334;48.710;9.622;2022-07-29T01:23:57;10.53;;;5.27;;
4642;SDS011;2334;48.710;9.622;2022-07-29T01:26:45;5.77;;;5.17;;
4642;SDS011;2334;48.710;9.622;2022-07-29T01:29:27;8.03;;;5.93;;
4642;SDS011;2334;48.710;9.622;2022-07-29T01:31:58;8.30;;;5.30;;
4642;SDS011;2334;48.710;9.622;2022-07-29T01:35:10;5.23;;;4.67;;
4642;SDS011;2334;48.710;9.622;2022-07-29T01:37:48;5.43;;;4.93;;
4642;SDS011;2334;48.710;9.622;2022-07-29T01:40:22;5.33;;;4.83;;
4642;SDS011;2334;48.710;9.622;2022-07-29T01:42:52;5.77;;;4.87;;
4642;SDS011;2334;48.710;9.622;2022-07-29T01:45:27;6.90;;;4.90;;
4642;SDS011;2334;48.710;9.622;2022-07-29T01:48:11;4.50;;;4.10;;
4642;SDS011;2334;48.710;9.622;2022-07-29T01:50:46;7.03;;;4.70;;
4642;SDS011;2334;48.710;9.622;2022-07-29T01:53:21;6.03;;;4.83;;
4642;SDS011;2334;48.710;9.622;2022-07-29T01:55:59;4.50;;;4.10;;
4642;SDS011;2334;48.710;9.622;2022-07-29T01:58:29;4.57;;;4.17;;
4642;SDS011;2334;48.710;9.622;2022-07-29T02:01:04;4.87;;;4.37;;
4642;SDS011;2334;48.710;9.622;2022-07-29T02:03:36;10.73;;;4.70;;
4642;SDS011;2334;48.710;9.622;2022-07-29T02:06:04;4.97;;;4.47;;
4642;SDS011;2334;48.710;9.622;2022-07-29T02:08:33;5.70;;;4.63;;
4642;SDS011;2334;48.710;9.622;2022-07-29T02:11:16;7.43;;;5.13;;
4642;SDS011;2334;48.710;9.622;2022-07-29T02:13:48;5.97;;;4.93;;
4642;SDS011;2334;48.710;9.622;2022-07-29T02:16:36;5.60;;;4.23;;
4642;SDS011;2334;48.710;9.622;2022-07-29T02:19:07;6.27;;;4.70;;
4642;SDS011;2334;48.710;9.622;2022-07-29T02:21:44;4.93;;;4.43;;
4642;SDS011;2334;48.710;9.622;2022-07-29T02:24:26;12.27;;;4.57;;
4642;SDS011;2334;48.710;9.622;2022-07-29T02:27:05;11.10;;;5.37;;
4642;SDS011;2334;48.710;9.622;2022-07-29T02:30:08;9.33;;;5.67;;
4642;SDS011;2334;48.710;9.622;2022-07-29T02:32:39;7.03;;;5.27;;
4642;SDS011;2334;48.710;9.622;2022-07-29T02:35:09;10.17;;;7.20;;
4642;SDS011;2334;48.710;9.622;2022-07-29T02:37:44;6.33;;;5.13;;
4642;SDS011;2334;48.710;9.622;2022-07-29T02:40:33;9.73;;;6.97;;
4642;SDS011;2334;48.710;9.622;2022-07-29T02:43:01;6.70;;;5.83;;
4642;SDS011;2334;48.710;9.622;2022-07-29T02:45:32;8.50;;;6.80;;
4642;SDS011;2334;48.710;9.622;2022-07-29T02:48:05;7.83;;;6.53;;
4642;SDS011;2334;48.710;9.622;2022-07-29T02:50:50;7.27;;;6.50;;
4642;SDS011;2334;48.710;9.622;2022-07-29T02:53:24;8.60;;;6.67;;
4642;SDS011;2334;48.710;9.622;2022-07-29T02:55:55;7.40;;;5.97;;
4642;SDS011;2334;48.710;9.622;2022-07-29T02:58:27;9.47;;;5.30;;
4642;SDS011;2334;48.710;9.622;2022-07-29T03:00:55;8.60;;;6.50;;
4642;SDS011;2334;48.710;9.622;2022-07-29T03:03:37;7.83;;;5.50;;
4642;SDS011;2334;48.710;9.622;2022-07-29T03:06:09;5.70;;;5.10;;
4642;SDS011;2334;48.710;9.622;2022-07-29T03:08:39;7.00;;;4.87;;
4642;SDS011;2334;48.710;9.622;2022-07-29T03:11:13;8.93;;;5.90;;
4642;SDS011;2334;48.710;9.622;2022-07-29T03:13:44;6.63;;;5.60;;
4642;SDS011;2334;48.710;9.622;2022-07-29T03:16:17;7.77;;;5.60;;
4642;SDS011;2334;48.710;9.622;2022-07-29T03:18:47;6.53;;;5.93;;
4642;SDS011;2334;48.710;9.622;2022-07-29T03:21:28;6.20;;;5.10;;
4642;SDS011;2334;48.710;9.622;2022-07-29T03:24:05;11.40;;;4.53;;
4642;SDS011;2334;48.710;9.622;2022-07-29T03:26:49;5.80;;;4.77;;
4642;SDS011;2334;48.710;9.622;2022-07-29T03:29:16;6.63;;;3.57;;
4642;SDS011;2334;48.710;9.622;2022-07-29T03:31:43;5.50;;;4.03;;
4642;SDS011;2334;48.710;9.622;2022-07-29T03:34:12;6.57;;;4.40;;
4642;SDS011;2334;48.710;9.622;2022-07-29T03:36:38;8.83;;;4.10;;
4642;SDS011;2334;48.710;9.622;2022-07-29T03:39:48;5.83;;;4.80;;
4642;SDS011;2334;48.710;9.622;2022-07-29T03:42:10;4.53;;;3.97;;
4642;SDS011;2334;48.710;9.622;2022-07-29T03:44:40;7.30;;;4.73;;
4642;SDS011;2334;48.710;9.622;2022-07-29T03:47:10;6.10;;;4.80;;
4642;SDS011;2334;48.710;9.622;2022-07-29T03:49:44;7.00;;;5.20;;
4642;SDS011;2334;48.710;9.622;2022-07-29T03:52:14;4.80;;;4.30;;
4642;SDS011;2334;48.710;9.622;2022-07-29T03:54:42;4.97;;;4.47;;
4642;SDS011;2334;48.710;9.622;2022-07-29T03:57:19;7.50;;;4.80;;
4642;SDS011;2334;48.710;9.622;2022-07-29T03:59:54;5.60;;;4.33;;
4642;SDS011;2334;48.710;9.622;2022-07-29T04:02:33;6.73;;;4.10;;
4642;SDS011;2334;48.710;9.622;2022-07-29T04:05:13;5.83;;;4.00;;
4642;SDS011;2334;48.710;9.622;2022-07-29T04:07:42;7.20;;;4.60;;
4642;SDS011;2334;48.710;9.622;2022-07-29T04:10:11;8.43;;;4.53;;
4642;SDS011;2334;48.710;9.622;2022-07-29T04:13:04;5.13;;;3.70;;
4642;SDS011;2334;48.710;9.622;2022-07-29T04:16:05;4.13;;;3.80;;
4642;SDS011;2334;48.710;9.622;2022-07-29T04:18:36;4.57;;;4.17;;
4642;SDS011;2334;48.710;9.622;2022-07-29T04:24:12;8.53;;;4.73;;
4642;SDS011;2334;48.710;9.622;2022-07-29T04:26:42;4.63;;;3.90;;
4642;SDS011;2334;48.710;9.622;2022-07-29T04:29:13;6.70;;;4.37;;
4642;SDS011;2334;48.710;9.622;2022-07-29T04:31:43;5.37;;;4.40;;
4642;SDS011;2334;48.710;9.622;2022-07-29T04:34:10;5.00;;;4.50;;
4642;SDS011;2334;48.710;9.622;2022-07-29T04:36:39;7.00;;;5.77;;
4642;SDS011;2334;48.710;9.622;2022-07-29T04:39:06;6.03;;;5.43;;
4642;SDS011;2334;48.710;9.622;2022-07-29T04:41:37;11.23;;;5.50;;
4642;SDS011;2334;48.710;9.622;2022-07-29T04:44:17;7.43;;;5.53;;
4642;SDS011;2334;48.710;9.622;2022-07-29T04:47:16;6.03;;;5.03;;
4642;SDS011;2334;48.710;9.622;2022-07-29T04:50:01;8.80;;;5.73;;
4642;SDS011;2334;48.710;9.622;2022-07-29T04:52:52;6.80;;;5.67;;
4642;SDS011;2334;48.710;9.622;2022-07-29T04:55:23;7.53;;;5.10;;
4642;SDS011;2334;48.710;9.622;2022-07-29T04:57:52;6.13;;;5.00;;
4642;SDS011;2334;48.710;9.622;2022-07-29T05:00:31;5.33;;;4.83;;
4642;SDS011;2334;48.710;9.622;2022-07-29T05:02:59;7.90;;;5.20;;
4642;SDS011;2334;48.710;9.622;2022-07-29T05:05:28;5.93;;;4.87;;
4642;SDS011;2334;48.710;9.622;2022-07-29T05:08:01;5.20;;;4.77;;
4642;SDS011;2334;48.710;9.622;2022-07-29T05:10:33;6.57;;;4.30;;
4642;SDS011;2334;48.710;9.622;2022-07-29T05:13:11;5.20;;;4.67;;
4642;SDS011;2334;48.710;9.622;2022-07-29T05:15:56;5.40;;;4.33;;
4642;SDS011;2334;48.710;9.622;2022-07-29T05:18:28;5.20;;;4.70;;
4642;SDS011;2334;48.710;9.622;2022-07-29T05:20:58;6.87;;;5.10;;
4642;SDS011;2334;48.710;9.622;2022-07-29T05:23:34;4.20;;;3.80;;
4642;SDS011;2334;48.710;9.622;2022-07-29T05:26:20;7.27;;;4.93;;
4642;SDS011;2334;48.710;9.622;2022-07-29T05:28:50;4.60;;;4.20;;
4642;SDS011;2334;48.710;9.622;2022-07-29T05:31:25;5.63;;;3.77;;
4642;SDS011;2334;48.710;9.622;2022-07-29T05:34:07;4.40;;;4.00;;
4642;SDS011;2334;48.710;9.622;2022-07-29T05:36:45;5.30;;;4.17;;
4642;SDS011;2334;48.710;9.622;2022-07-29T05:39:14;4.13;;;3.83;;
4642;SDS011;2334;48.710;9.622;2022-07-29T05:41:45;11.73;;;5.30;;
4642;SDS011;2334;48.710;9.622;2022-07-29T05:44:26;11.20;;;4.40;;
4642;SDS011;2334;48.710;9.622;2022-07-29T05:47:05;5.60;;;5.10;;
4642;SDS011;2334;48.710;9.622;2022-07-29T05:49:39;9.90;;;4.83;;
4642;SDS011;2334;48.710;9.622;2022-07-29T05:52:10;5.07;;;4.57;;
4642;SDS011;2334;48.710;9.622;2022-07-29T05:54:44;5.83;;;5.23;;
4642;SDS011;2334;48.710;9.622;2022-07-29T05:57:22;4.73;;;4.30;;
4642;SDS011;2334;48.710;9.622;2022-07-29T05:59:51;5.47;;;4.00;;
4642;SDS011;2334;48.710;9.622;2022-07-29T06:02:32;10.50;;;4.80;;
4642;SDS011;2334;48.710;9.622;2022-07-29T06:05:08;9.53;;;4.53;;
4642;SDS011;2334;48.710;9.622;2022-07-29T06:07:44;6.80;;;4.63;;
4642;SDS011;2334;48.710;9.622;2022-07-29T06:10:18;4.80;;;4.33;;
4642;SDS011;2334;48.710;9.622;2022-07-29T06:12:51;6.07;;;4.90;;
4642;SDS011;2334;48.710;9.622;2022-07-29T06:15:31;5.23;;;4.20;;
4642;SDS011;2334;48.710;9.622;2022-07-29T06:18:06;5.43;;;4.90;;
4642;SDS011;2334;48.710;9.622;2022-07-29T06:20:38;6.50;;;5.10;;
4642;SDS011;2334;48.710;9.622;2022-07-29T06:23:10;4.17;;;3.87;;
4642;SDS011;2334;48.710;9.622;2022-07-29T06:25:39;6.30;;;4.10;;
4642;SDS011;2334;48.710;9.622;2022-07-29T06:28:08;11.23;;;5.17;;
4642;SDS011;2334;48.710;9.622;2022-07-29T06:30:52;7.83;;;4.20;;
4642;SDS011;2334;48.710;9.622;2022-07-29T06:33:26;5.60;;;4.30;;
4642;SDS011;2334;48.710;9.622;2022-07-29T06:35:54;13.00;;;4.87;;
4642;SDS011;2334;48.710;9.622;2022-07-29T06:38:35;7.70;;;5.30;;
4642;SDS011;2334;48.710;9.622;2022-07-29T06:41:06;7.03;;;5.10;;
4642;SDS011;2334;48.710;9.622;2022-07-29T06:43:54;7.67;;;5.00;;
4642;SDS011;2334;48.710;9.622;2022-07-29T06:46:24;5.57;;;4.47;;
4642;SDS011;2334;48.710;9.622;2022-07-29T06:48:56;6.00;;;4.87;;
4642;SDS011;2334;48.710;9.622;2022-07-29T06:51:25;6.30;;;4.67;;
4642;SDS011;2334;48.710;9.622;2022-07-29T06:54:06;7.30;;;4.63;;
4642;SDS011;2334;48.710;9.622;2022-07-29T06:56:36;7.50;;;4.50;;
4642;SDS011;2334;48.710;9.622;2022-07-29T06:59:11;7.17;;;6.10;;
4642;SDS011;2334;48.710;9.622;2022-07-29T07:01:44;6.87;;;4.97;;
4642;SDS011;2334;48.710;9.622;2022-07-29T07:04:18;7.17;;;4.70;;
4642;SDS011;2334;48.710;9.622;2022-07-29T07:06:50;4.80;;;4.00;;
4642;SDS011;2334;48.710;9.622;2022-07-29T07:12:05;4.70;;;4.30;;
4642;SDS011;2334;48.710;9.622;2022-07-29T07:14:40;4.13;;;3.80;;
4642;SDS011;2334;48.710;9.622;2022-07-29T07:17:10;4.70;;;3.83;;
4642;SDS011;2334;48.710;9.622;2022-07-29T07:19:47;4.07;;;3.47;;
4642;SDS011;2334;48.710;9.622;2022-07-29T07:22:19;7.33;;;4.20;;
4642;SDS011;2334;48.710;9.622;2022-07-29T07:24:50;3.20;;;2.90;;
4642;SDS011;2334;48.710;9.622;2022-07-29T07:27:20;4.23;;;2.93;;
4642;SDS011;2334;48.710;9.622;2022-07-29T07:29:52;3.40;;;3.10;;
4642;SDS011;2334;48.710;9.622;2022-07-29T07:32:22;2.87;;;2.67;;
4642;SDS011;2334;48.710;9.622;2022-07-29T07:35:07;6.80;;;3.50;;
4642;SDS011;2334;48.710;9.622;2022-07-29T07:37:48;3.00;;;2.70;;
4642;SDS011;2334;48.710;9.622;2022-07-29T07:40:22;4.07;;;2.97;;
4642;SDS011;2334;48.710;9.622;2022-07-29T07:42:54;4.10;;;2.67;;
4642;SDS011;2334;48.710;9.622;2022-07-29T07:45:32;2.53;;;2.33;;
4642;SDS011;2334;48.710;9.622;2022-07-29T07:48:01;2.67;;;2.50;;
4642;SDS011;2334;48.710;9.622;2022-07-29T07:53:19;2.43;;;2.23;;
4642;SDS011;2334;48.710;9.622;2022-07-29T07:55:47;2.93;;;2.73;;
4642;SDS011;2334;48.710;9.622;2022-07-29T07:58:20;2.20;;;1.93;;
4642;SDS011;2334;48.710;9.622;2022-07-29T08:00:56;5.30;;;2.60;;
4642;SDS011;2334;48.710;9.622;2022-07-29T08:03:23;2.37;;;2.27;;
4642;SDS011;2334;48.710;9.622;2022-07-29T08:09:20;2.90;;;2.30;;
4642;SDS011;2334;48.710;9.622;2022-07-29T08:11:56;2.97;;;2.33;;
4642;SDS011;2334;48.710;9.622;2022-07-29T08:14:26;3.50;;;2.20;;
4642;SDS011;2334;48.710;9.622;2022-07-29T08:17:10;2.53;;;2.33;;
4642;SDS011;2334;48.710;9.622;2022-07-29T08:19:38;6.87;;;2.30;;
4642;SDS011;2334;48.710;9.622;2022-07-29T08:22:10;4.53;;;3.00;;
4642;SDS011;2334;48.710;9.622;2022-07-29T08:24:37;3.80;;;2.40;;
4642;SDS011;2334;48.710;9.622;2022-07-29T08:27:17;4.03;;;2.20;;
4642;SDS011;2334;48.710;9.622;2022-07-29T08:29:47;2.63;;;2.40;;
4642;SDS011;2334;48.710;9.622;2022-07-29T08:32:14;4.93;;;2.57;;
4642;SDS011;2334;48.710;9.622;2022-07-29T08:34:49;6.13;;;2.27;;
4642;SDS011;2334;48.710;9.622;2022-07-29T08:37:43;2.57;;;2.37;;
4642;SDS011;2334;48.710;9.622;2022-07-29T08:40:28;3.17;;;2.97;;
4642;SDS011;2334;48.710;9.622;2022-07-29T08:42:59;7.60;;;3.00;;
4642;SDS011;2334;48.710;9.622;2022-07-29T08:45:50;10.60;;;3.10;;
4642;SDS011;2334;48.710;9.622;2022-07-29T08:48:21;5.70;;;3.53;;
4642;SDS011;2334;48.710;9.622;2022-07-29T08:50:55;4.10;;;2.83;;
4642;SDS011;2334;48.710;9.622;2022-07-29T08:53:28;3.40;;;2.67;;
4642;SDS011;2334;48.710;9.622;2022-07-29T08:56:17;7.13;;;2.77;;
4642;SDS011;2334;48.710;9.622;2022-07-29T08:59:02;2.90;;;2.70;;
4642;SDS011;2334;48.710;9.622;2022-07-29T09:01:37;3.77;;;3.30;;
4642;SDS011;2334;48.710;9.622;2022-07-29T09:04:11;4.03;;;2.90;;
4642;SDS011;2334;48.710;9.622;2022-07-29T09:09:49;6.00;;;3.37;;
4642;SDS011;2334;48.710;9.622;2022-07-29T09:12:16;3.57;;;3.23;;
4642;SDS011;2334;48.710;9.622;2022-07-29T09:14:47;6.70;;;3.57;;
4642;SDS011;2334;48.710;9.622;2022-07-29T09:17:52;4.63;;;3.63;;
4642;SDS011;2334;48.710;9.622;2022-07-29T09:20:28;3.60;;;3.03;;
4642;SDS011;2334;48.710;9.622;2022-07-29T09:39:46;6.13;;;3.47;;
4642;SDS011;2334;48.710;9.622;2022-07-29T09:42:27;4.80;;;3.67;;
4642;SDS011;2334;48.710;9.622;2022-07-29T09:45:01;4.00;;;3.37;;
4642;SDS011;2334;48.710;9.622;2022-07-29T09:47:41;3.90;;;2.50;;
4642;SDS011;2334;48.710;9.622;2022-07-29T09:50:40;3.10;;;2.90;;
4642;SDS011;2334;48.710;9.622;2022-07-29T09:53:29;4.67;;;4.27;;
4642;SDS011;2334;48.710;9.622;2022-07-29T09:56:11;5.37;;;3.13;;
4642;SDS011;2334;48.710;9.622;2022-07-29T09:58:39;6.60;;;3.40;;
4642;SDS011;2334;48.710;9.622;2022-07-29T10:01:21;5.33;;;3.10;;
4642;SDS011;2334;48.710;9.622;2022-07-29T10:06:57;7.67;;;3.80;;
4642;SDS011;2334;48.710;9.622;2022-07-29T10:09:34;3.53;;;3.23;;
4642;SDS011;2334;48.710;9.622;2022-07-29T10:12:09;3.63;;;2.90;;
4642;SDS011;2334;48.710;9.622;2022-07-29T10:14:47;2.90;;;2.80;;
4642;SDS011;2334;48.710;9.622;2022-07-29T10:17:35;6.20;;;4.07;;
4642;SDS011;2334;48.710;9.622;2022-07-29T10:20:12;6.43;;;3.00;;
4642;SDS011;2334;48.710;9.622;2022-07-29T10:22:40;3.53;;;3.23;;
4642;SDS011;2334;48.710;9.622;2022-07-29T10:25:10;3.07;;;2.87;;
4642;SDS011;2334;48.710;9.622;2022-07-29T10:27:39;3.27;;;3.07;;
4642;SDS011;2334;48.710;9.622;2022-07-29T10:30:10;4.90;;;3.20;;
4642;SDS011;2334;48.710;9.622;2022-07-29T10:32:39;6.77;;;2.90;;
4642;SDS011;2334;48.710;9.622;2022-07-29T10:35:31;6.50;;;2.70;;
4642;SDS011;2334;48.710;9.622;2022-07-29T10:41:15;7.13;;;3.60;;
4642;SDS011;2334;48.710;9.622;2022-07-29T10:43:58;4.07;;;3.27;;
4642;SDS011;2334;48.710;9.622;2022-07-29T10:46:27;3.50;;;3.00;;
4642;SDS011;2334;48.710;9.622;2022-07-29T10:49:07;2.93;;;2.63;;
4642;SDS011;2334;48.710;9.622;2022-07-29T10:54:40;4.80;;;2.93;;
4642;SDS011;2334;48.710;9.622;2022-07-29T10:57:30;7.80;;;3.60;;
4642;SDS011;2334;48.710;9.622;2022-07-29T11:02:58;4.00;;;3.03;;
4642;SDS011;2334;48.710;9.622;2022-07-29T11:05:26;3.20;;;2.90;;
4642;SDS011;2334;48.710;9.622;2022-07-29T11:10:52;6.67;;;4.20;;
4642;SDS011;2334;48.710;9.622;2022-07-29T11:16:24;6.70;;;3.23;;
4642;SDS011;2334;48.710;9.622;2022-07-29T11:21:46;4.37;;;4.00;;
4642;SDS011;2334;48.710;9.622;2022-07-29T11:24:15;9.23;;;3.30;;
4642;SDS011;2334;48.710;9.622;2022-07-29T11:26:46;4.60;;;3.57;;
4642;SDS011;2334;48.710;9.622;2022-07-29T11:29:47;3.83;;;2.83;;
4642;SDS011;2334;48.710;9.622;2022-07-29T11:32:16;3.40;;;3.10;;
4642;SDS011;2334;48.710;9.622;2022-07-29T11:34:44;7.53;;;3.60;;
4642;SDS011;2334;48.710;9.622;2022-07-29T11:37:19;4.77;;;3.20;;
4642;SDS011;2334;48.710;9.622;2022-07-29T11:40:13;4.40;;;4.00;;
4642;SDS011;2334;48.710;9.622;2022-07-29T11:42:45;4.00;;;3.57;;
4642;SDS011;2334;48.710;9.622;2022-07-29T11:45:21;4.40;;;3.90;;
4642;SDS011;2334;48.710;9.622;2022-07-29T11:47:53;4.07;;;3.27;;
4642;SDS011;2334;48.710;9.622;2022-07-29T11:50:27;4.53;;;3.20;;
4642;SDS011;2334;48.710;9.622;2022-07-29T11:52:57;5.83;;;4.20;;
4642;SDS011;2334;48.710;9.622;2022-07-29T11:55:24;6.30;;;3.60;;
4642;SDS011;2334;48.710;9.622;2022-07-29T11:57:52;4.87;;;3.70;;
4642;SDS011;2334;48.710;9.622;2022-07-29T12:00:22;9.13;;;3.70;;
4642;SDS011;2334;48.710;9.622;2022-07-29T12:02:51;5.77;;;3.40;;
4642;SDS011;2334;48.710;9.622;2022-07-29T12:05:19;5.53;;;3.90;;
4642;SDS011;2334;48.710;9.622;2022-07-29T12:07:47;3.50;;;3.10;;
4642;SDS011;2334;48.710;9.622;2022-07-29T12:10:18;4.40;;;2.70;;
4642;SDS011;2334;48.710;9.622;2022-07-29T12:12:50;4.30;;;2.90;;
4642;SDS011;2334;48.710;9.622;2022-07-29T12:15:18;9.73;;;3.70;;
4642;SDS011;2334;48.710;9.622;2022-07-29T12:17:50;8.30;;;4.30;;
4642;SDS011;2334;48.710;9.622;2022-07-29T12:23:38;5.37;;;3.40;;
4642;SDS011;2334;48.710;9.622;2022-07-29T12:26:23;5.83;;;3.57;;
4642;SDS011;2334;48.710;9.622;2022-07-29T12:29:06;5.83;;;4.07;;
4642;SDS011;2334;48.710;9.622;2022-07-29T12:31:33;5.00;;;4.33;;
4642;SDS011;2334;48.710;9.622;2022-07-29T12:34:05;4.40;;;4.00;;
4642;SDS011;2334;48.710;9.622;2022-07-29T12:39:23;4.93;;;4.43;;
4642;SDS011;2334;48.710;9.622;2022-07-29T12:41:53;7.13;;;4.40;;
4642;SDS011;2334;48.710;9.622;2022-07-29T12:44:52;5.07;;;3.90;;
4642;SDS011;2334;48.710;9.622;2022-07-29T12:47:28;7.33;;;4.23;;
4642;SDS011;2334;48.710;9.622;2022-07-29T12:50:13;4.53;;;2.83;;
4642;SDS011;2334;48.710;9.622;2022-07-29T12:52:43;3.97;;;3.40;;
4642;SDS011;2334;48.710;9.622;2022-07-29T12:55:13;3.10;;;2.90;;
4642;SDS011;2334;48.710;9.622;2022-07-29T12:57:44;6.23;;;2.43;;
4642;SDS011;2334;48.710;9.622;2022-07-29T13:00:14;3.07;;;2.47;;
4642;SDS011;2334;48.710;9.622;2022-07-29T13:02:44;2.43;;;2.23;;
4642;SDS011;2334;48.710;9.622;2022-07-29T13:05:22;2.90;;;2.33;;
4642;SDS011;2334;48.710;9.622;2022-07-29T13:07:52;2.10;;;1.90;;
4642;SDS011;2334;48.710;9.622;2022-07-29T13:10:43;2.60;;;2.40;;
4642;SDS011;2334;48.710;9.622;2022-07-29T13:13:26;3.10;;;2.80;;
4642;SDS011;2334;48.710;9.622;2022-07-29T13:16:05;4.47;;;2.83;;
4642;SDS011;2334;48.710;9.622;2022-07-29T13:18:39;2.87;;;2.43;;
4642;SDS011;2334;48.710;9.622;2022-07-29T13:21:22;4.03;;;2.20;;
4642;SDS011;2334;48.710;9.622;2022-07-29T13:23:57;4.00;;;2.03;;
4642;SDS011;2334;48.710;9.622;2022-07-29T13:26:31;3.03;;;2.80;;
4642;SDS011;2334;48.710;9.622;2022-07-29T13:29:07;2.67;;;2.43;;
4642;SDS011;2334;48.710;9.622;2022-07-29T13:31:37;3.13;;;2.10;;
4642;SDS011;2334;48.710;9.622;2022-07-29T13:34:09;2.60;;;2.20;;
4642;SDS011;2334;48.710;9.622;2022-07-29T13:36:48;3.13;;;2.60;;
4642;SDS011;2334;48.710;9.622;2022-07-29T13:39:20;2.53;;;2.33;;
4642;SDS011;2334;48.710;9.622;2022-07-29T13:42:04;3.27;;;2.23;;
4642;SDS011;2334;48.710;9.622;2022-07-29T13:44:38;1.70;;;1.60;;
4642;SDS011;2334;48.710;9.622;2022-07-29T13:47:08;2.50;;;2.30;;
4642;SDS011;2334;48.710;9.622;2022-07-29T13:49:36;2.87;;;2.33;;
4642;SDS011;2334;48.710;9.622;2022-07-29T13:52:05;3.43;;;2.07;;
4642;SDS011;2334;48.710;9.622;2022-07-29T13:54:32;3.63;;;2.23;;
4642;SDS011;2334;48.710;9.622;2022-07-29T13:57:02;2.17;;;1.97;;
4642;SDS011;2334;48.710;9.622;2022-07-29T13:59:29;4.10;;;3.80;;
4642;SDS011;2334;48.710;9.622;2022-07-29T14:01:56;2.80;;;2.53;;
4642;SDS011;2334;48.710;9.622;2022-07-29T14:04:24;2.90;;;2.70;;
4642;SDS011;2334;48.710;9.622;2022-07-29T14:06:51;2.60;;;2.40;;
4642;SDS011;2334;48.710;9.622;2022-07-29T14:09:20;2.70;;;2.50;;
4642;SDS011;2334;48.710;9.622;2022-07-29T14:11:47;2.80;;;2.60;;
4642;SDS011;2334;48.710;9.622;2022-07-29T14:14:15;2.60;;;2.37;;
4642;SDS011;2334;48.710;9.622;2022-07-29T14:16:42;3.63;;;2.33;;
4642;SDS011;2334;48.710;9.622;2022-07-29T14:19:09;2.20;;;2.10;;
4642;SDS011;2334;48.710;9.622;2022-07-29T14:21:36;2.33;;;2.23;;
4642;SDS011;2334;48.710;9.622;2022-07-29T14:24:03;3.07;;;2.33;;
4642;SDS011;2334;48.710;9.622;2022-07-29T14:26:32;3.93;;;2.63;;
4642;SDS011;2334;48.710;9.622;2022-07-29T14:28:59;3.83;;;2.57;;
4642;SDS011;2334;48.710;9.622;2022-07-29T14:31:26;3.93;;;2.20;;
4642;SDS011;2334;48.710;9.622;2022-07-29T14:33:53;2.87;;;2.67;;
4642;SDS011;2334;48.710;9.622;2022-07-29T14:36:20;2.50;;;2.30;;
4642;SDS011;2334;48.710;9.622;2022-07-29T14:38:47;5.50;;;2.90;;
4642;SDS011;2334;48.710;9.622;2022-07-29T14:41:14;3.07;;;2.77;;
4642;SDS011;2334;48.710;9.622;2022-07-29T14:43:43;2.03;;;1.93;;
4642;SDS011;2334;48.710;9.622;2022-07-29T14:46:10;3.60;;;2.90;;
4642;SDS011;2334;48.710;9.622;2022-07-29T14:48:36;2.50;;;2.30;;
4642;SDS011;2334;48.710;9.622;2022-07-29T14:51:03;3.83;;;2.83;;
4642;SDS011;2334;48.710;9.622;2022-07-29T14:53:30;6.23;;;2.97;;
4642;SDS011;2334;48.710;9.622;2022-07-29T14:55:57;4.10;;;2.80;;
4642;SDS011;2334;48.710;9.622;2022-07-29T14:58:25;2.70;;;2.47;;
4642;SDS011;2334;48.710;9.622;2022-07-29T15:00:53;2.83;;;2.63;;
4642;SDS011;2334;48.710;9.622;2022-07-29T15:03:21;2.57;;;2.23;;
4642;SDS011;2334;48.710;9.622;2022-07-29T15:05:48;3.13;;;2.90;;
4642;SDS011;2334;48.710;9.622;2022-07-29T15:08:15;3.90;;;2.83;;
4642;SDS011;2334;48.710;9.622;2022-07-29T15:10:42;3.40;;;2.67;;
4642;SDS011;2334;48.710;9.622;2022-07-29T15:13:09;5.17;;;2.70;;
4642;SDS011;2334;48.710;9.622;2022-07-29T15:15:35;2.73;;;2.53;;
4642;SDS011;2334;48.710;9.622;2022-07-29T15:18:04;3.77;;;2.47;;
4642;SDS011;2334;48.710;9.622;2022-07-29T15:20:31;3.00;;;2.80;;
4642;SDS011;2334;48.710;9.622;2022-07-29T15:22:58;2.43;;;2.33;;
4642;SDS011;2334;48.710;9.622;2022-07-29T15:25:25;3.60;;;3.17;;
4642;SDS011;2334;48.710;9.622;2022-07-29T15:27:52;4.60;;;3.90;;
4642;SDS011;2334;48.710;9.622;2022-07-29T15:30:19;6.47;;;2.40;;
4642;SDS011;2334;48.710;9.622;2022-07-29T15:32:46;4.60;;;2.53;;
4642;SDS011;2334;48.710;9.622;2022-07-29T15:35:14;3.50;;;3.20;;
4642;SDS011;2334;48.710;9.622;2022-07-29T15:37:41;3.50;;;3.13;;
4642;SDS011;2334;48.710;9.622;2022-07-29T15:40:08;3.63;;;3.33;;
4642;SDS011;2334;48.710;9.622;2022-07-29T15:42:36;7.63;;;2.87;;
4642;SDS011;2334;48.710;9.622;2022-07-29T15:45:03;3.20;;;2.20;;
4642;SDS011;2334;48.710;9.622;2022-07-29T15:47:31;3.50;;;2.97;;
4642;SDS011;2334;48.710;9.622;2022-07-29T15:50:00;5.63;;;3.90;;
4642;SDS011;2334;48.710;9.622;2022-07-29T15:52:32;3.37;;;3.17;;
4642;SDS011;2334;48.710;9.622;2022-07-29T15:54:59;4.90;;;3.50;;
4642;SDS011;2334;48.710;9.622;2022-07-29T15:57:26;4.20;;;2.70;;
4642;SDS011;2334;48.710;9.622;2022-07-29T15:59:53;7.40;;;3.67;;
4642;SDS011;2334;48.710;9.622;2022-07-29T16:02:21;3.63;;;3.33;;
4642;SDS011;2334;48.710;9.622;2022-07-29T16:04:48;3.00;;;2.80;;
4642;SDS011;2334;48.710;9.622;2022-07-29T16:07:15;3.20;;;2.90;;
4642;SDS011;2334;48.710;9.622;2022-07-29T16:09:43;9.03;;;3.57;;
4642;SDS011;2334;48.710;9.622;2022-07-29T16:12:10;4.13;;;3.50;;
4642;SDS011;2334;48.710;9.622;2022-07-29T16:14:37;3.90;;;3.50;;
4642;SDS011;2334;48.710;9.622;2022-07-29T16:17:04;3.10;;;2.80;;
4642;SDS011;2334;48.710;9.622;2022-07-29T16:19:31;4.13;;;3.20;;
4642;SDS011;2334;48.710;9.622;2022-07-29T16:21:58;4.73;;;3.30;;
4642;SDS011;2334;48.710;9.622;2022-07-29T16:24:25;3.97;;;3.13;;
4642;SDS011;2334;48.710;9.622;2022-07-29T16:26:55;4.70;;;2.97;;
4642;SDS011;2334;48.710;9.622;2022-07-29T16:29:22;4.47;;;3.60;;
4642;SDS011;2334;48.710;9.622;2022-07-29T16:31:49;3.60;;;3.30;;
4642;SDS011;2334;48.710;9.622;2022-07-29T16:34:17;4.33;;;3.63;;
4642;SDS011;2334;48.710;9.622;2022-07-29T16:36:47;4.73;;;3.33;;
4642;SDS011;2334;48.710;9.622;2022-07-29T16:39:14;3.33;;;3.03;;
4642;SDS011;2334;48.710;9.622;2022-07-29T16:41:41;3.40;;;3.20;;
4642;SDS011;2334;48.710;9.622;2022-07-29T16:44:09;5.67;;;2.80;;
4642;SDS011;2334;48.710;9.622;2022-07-29T16:46:36;3.20;;;2.90;;
4642;SDS011;2334;48.710;9.622;2022-07-29T16:49:03;6.90;;;3.27;;
4642;SDS011;2334;48.710;9.622;2022-07-29T16:51:30;3.23;;;3.03;;
4642;SDS011;2334;48.710;9.622;2022-07-29T16:53:57;5.87;;;4.10;;
4642;SDS011;2334;48.710;9.622;2022-07-29T16:56:24;3.00;;;2.80;;
4642;SDS011;2334;48.710;9.622;2022-07-29T16:58:50;4.47;;;3.67;;